Terminal Aerodrome Forecast
Issued by NWS Raleigh/Durham, NC

Current Version | Previous Version | Text Only | Print | Product List | Glossary On
Versions: 1 2 3 4 5 6 7 8 9 10 11 12 13 14 15 16 17 18 19 20 21 22 23 24 25 26
000
FTUS42 KRAH 231140 CCA
TAFRDU
TAF COR
KRDU 231140Z 2312/2412 23007KT 4SM -RA BKN006 OVC100
      TEMPO 2313/2316 P6SM NSW BKN015 OVC100
     FM231600 23012KT P6SM BKN025
     FM231800 23012G18KT P6SM SCT035
      TEMPO 2322/2402 21015G25KT
     FM240200 21015G25KT P6SM BKN120=

USA.gov is the U.S. government's official web portal to all federal, state and local government web resources and services.